SBKP/CPQ METAR and TAF weather

Enter ICAO airport designator
Station Type Date Time Source
SBKP METAR 2019/05/26 01:00 UTC NOAA

SBKP 260100Z 14005KT CAVOK 14/11 Q1020


Station Type Date Time Source
SBKP Decoded METAR 2019/05/26 01:00 UTC NOAA

Campinas Aeroporto , Brazil (SBKP) 23-00S 047-08W 661M
May 25, 2019 - 09:00 PM EDT / 2019.05.26 0100 UTC
Wind: from the SE (140 degrees) at 6 MPH (5 KT):0
Visibility: greater than 7 mile(s):0
Temperature: 57 F (14 C)
Dew Point: 51 F (11 C)
Relative Humidity: 82%
Pressure (altimeter): 30.12 in. Hg (1020 hPa)
ob: SBKP 260100Z 14005KT CAVOK 14/11 Q1020
cycle: 1

Station Type Date Time Source
SBKP TAF 2019/05/26 00:00 UTC NOAA

TAF SBKP 252230Z 2600/2624 18005KT CAVOK TN11/2608Z TX24/2618Z
BECMG 2601/2603 15008KT
BECMG 2606/2608 12008KT
BECMG 2613/2615 09005KT FEW035
BECMG 2619/2621 23006KT CAVOK
BECMG 2621/2623 17008KT
RMK PGQ

Example: see airport list